Time;durP1;ratioP1;P1;durP2;ratioP2;P2;SDS_P1;SDS_P2;PMS_P1;PMS_P2;Temp;Humidity;BMP_temperature;BMP_pressure;BME280_temperature;BME280_humidity;BME280_pressure;Samples;Min_cycle;Max_cycle;Signal;HPM_P1;HPM_P2
2021/03/18 00:01:51;;;;;;;22.77;4.18;;;;;;;2.32;93.08;102906.69;5044990;28;20529;-70
2021/03/18 00:04:17;;;;;;;24.25;4.20;;;;;;;2.30;93.37;102912.00;5043846;28;20035;-70
2021/03/18 00:06:46;;;;;;;23.73;4.55;;;;;;;2.02;93.34;102865.47;5040645;28;20056;-70
2021/03/18 00:09:14;;;;;;;26.27;5.03;;;;;;;2.29;93.63;102897.13;5043561;28;20032;-70
2021/03/18 00:11:42;;;;;;;18.88;4.63;;;;;;;2.29;94.31;102903.25;5043777;28;20033;-70
2021/03/18 00:14:09;;;;;;;31.67;5.60;;;;;;;2.28;93.93;102900.66;5044162;28;20093;-71
2021/03/18 00:16:35;;;;;;;25.30;5.75;;;;;;;2.26;94.60;102889.31;5041875;28;20029;-70
2021/03/18 00:19:01;;;;;;;22.50;5.88;;;;;;;2.24;94.12;102886.72;5015197;28;20071;-70
2021/03/18 00:21:26;;;;;;;24.92;5.90;;;;;;;2.22;95.08;102882.44;5035077;28;20049;-70
2021/03/18 00:23:53;;;;;;;18.25;5.72;;;;;;;2.22;94.65;102885.06;5022011;28;20042;-69
2021/03/18 00:26:21;;;;;;;21.60;6.15;;;;;;;2.26;94.61;102879.63;5021843;28;20322;-70
2021/03/18 00:28:47;;;;;;;19.83;6.88;;;;;;;2.28;94.78;102876.94;5025668;28;20037;-70
2021/03/18 00:31:13;;;;;;;27.58;6.60;;;;;;;2.24;94.90;102881.47;5026344;28;20029;-69
2021/03/18 00:33:38;;;;;;;20.33;6.35;;;;;;;1.37;94.88;102731.41;5023771;28;20787;-69
2021/03/18 00:36:04;;;;;;;31.02;7.20;;;;;;;2.23;94.65;102863.06;5003947;28;20036;-70
2021/03/18 00:38:30;;;;;;;22.52;6.65;;;;;;;2.18;94.22;102852.66;5021106;28;20306;-70
2021/03/18 00:41:00;;;;;;;22.15;5.40;;;;;;;2.13;94.70;102857.22;5007715;28;20530;-70
2021/03/18 00:43:25;;;;;;;22.83;5.65;;;;;;;2.06;94.80;102861.81;5023535;28;20033;-69
2021/03/18 00:45:51;;;;;;;22.65;5.93;;;;;;;1.75;95.31;102807.47;5022788;28;20076;-70
2021/03/18 00:48:19;;;;;;;22.67;6.00;;;;;;;2.03;95.73;102848.75;5023084;28;20606;-70
2021/03/18 00:50:47;;;;;;;18.38;5.85;;;;;;;2.06;95.58;102850.41;5006340;28;20061;-70
2021/03/18 00:53:15;;;;;;;26.95;6.97;;;;;;;1.94;95.99;102843.78;5024633;28;20493;-70
2021/03/18 00:55:42;;;;;;;21.70;6.43;;;;;;;2.02;96.31;102851.44;5003775;28;20156;-70
2021/03/18 00:58:07;;;;;;;25.20;7.13;;;;;;;1.89;95.90;102835.16;5006398;28;20025;-70
2021/03/18 01:00:38;;;;;;;25.23;6.47;;;;;;;2.05;95.85;102875.03;5024148;28;20095;-70
2021/03/18 01:03:03;;;;;;;22.08;6.95;;;;;;;2.02;95.82;102875.16;5024150;28;20053;-70
2021/03/18 01:05:42;;;;;;;24.98;6.60;;;;;;;2.09;96.15;102889.84;5006199;28;20120;-70
2021/03/18 01:08:12;;;;;;;22.02;6.65;;;;;;;2.10;96.25;102884.50;5014790;28;20545;-70
2021/03/18 01:10:50;;;;;;;30.98;7.30;;;;;;;2.13;96.65;102884.41;5018506;28;20025;-69
2021/03/18 01:13:19;;;;;;;22.88;6.82;;;;;;;1.85;96.86;102839.66;5006791;28;20072;-70
2021/03/18 01:15:54;;;;;;;24.42;6.72;;;;;;;2.19;96.47;102895.69;5020934;28;20041;-70
2021/03/18 01:18:22;;;;;;;18.80;5.95;;;;;;;2.13;95.78;102891.47;5022949;28;20104;-70
2021/03/18 01:20:49;;;;;;;26.42;7.07;;;;;;;2.10;95.23;102887.16;4991757;28;20141;-70
2021/03/18 01:23:14;;;;;;;29.67;7.35;;;;;;;2.06;95.71;102893.44;5040636;28;20119;-70
2021/03/18 01:25:40;;;;;;;25.52;7.38;;;;;;;2.02;95.94;102883.91;5039203;28;20047;-70
2021/03/18 01:28:09;;;;;;;22.67;6.75;;;;;;;1.99;95.91;102884.84;5043104;28;20035;-70
2021/03/18 01:30:38;;;;;;;30.15;7.55;;;;;;;1.98;96.75;102883.13;5036413;28;20036;-70
2021/03/18 01:33:03;;;;;;;24.40;7.65;;;;;;;1.95;96.53;102877.09;5043534;28;20433;-71
2021/03/18 01:35:30;;;;;;;21.15;6.97;;;;;;;1.94;96.52;102878.88;5042122;28;20139;-70
2021/03/18 01:37:56;;;;;;;22.88;7.25;;;;;;;1.94;97.17;102878.88;5038665;28;20384;-70
2021/03/18 01:40:24;;;;;;;24.77;7.15;;;;;;;1.89;96.69;102867.63;5042351;28;20515;-70
2021/03/18 01:42:50;;;;;;;24.92;7.47;;;;;;;1.90;96.52;102868.47;5042886;28;20035;-70
2021/03/18 01:45:16;;;;;;;17.25;6.68;;;;;;;1.81;96.48;102859.97;5026707;28;20044;-70
2021/03/18 01:47:44;;;;;;;23.30;7.47;;;;;;;1.81;96.89;102852.06;5045491;28;20037;-70
2021/03/18 01:50:12;;;;;;;22.00;7.65;;;;;;;1.79;97.42;102838.06;5046963;28;20036;-70
2021/03/18 01:52:38;;;;;;;19.02;6.72;;;;;;;1.92;96.83;102845.59;5040749;28;20052;-70
2021/03/18 01:55:07;;;;;;;24.92;7.30;;;;;;;2.02;98.15;102836.50;5048816;28;20036;-70
2021/03/18 01:57:32;;;;;;;;;;;;;;;2.10;97.72;102833.63;5046378;28;20040;-70
2021/03/18 01:59:58;;;;;;;21.65;7.05;;;;;;;2.16;97.35;102830.81;5048882;28;19917;-70
2021/03/18 02:02:24;;;;;;;26.77;7.45;;;;;;;2.10;97.36;102792.31;5029675;28;20032;-70
2021/03/18 02:04:49;;;;;;;25.73;7.90;;;;;;;2.13;97.50;102783.47;5045843;28;20056;-70
2021/03/18 02:07:15;;;;;;;24.83;7.88;;;;;;;2.39;96.54;102821.28;5047799;28;20064;-70
2021/03/18 02:09:40;;;;;;;35.60;7.65;;;;;;;2.45;96.49;102819.28;5046333;28;20033;-70
2021/03/18 02:12:06;;;;;;;22.65;8.07;;;;;;;2.52;96.12;102825.22;5050723;28;20086;-69
2021/03/18 02:14:32;;;;;;;20.90;7.25;;;;;;;2.58;95.72;102825.00;5045831;28;20033;-70
2021/03/18 02:17:02;;;;;;;25.77;6.85;;;;;;;2.37;95.41;102781.81;5043333;28;20059;-70
2021/03/18 02:19:45;;;;;;;19.48;6.82;;;;;;;2.69;95.36;102823.78;5031542;28;20511;-70
2021/03/18 02:22:44;;;;;;;20.60;6.70;;;;;;;2.74;94.93;102833.25;5045385;28;20072;-70
2021/03/18 02:25:22;;;;;;;25.88;6.70;;;;;;;2.77;94.97;102823.53;5014876;28;20029;-70
2021/03/18 02:28:08;;;;;;;28.03;7.67;;;;;;;2.79;95.42;102821.66;5047737;28;20123;-70
2021/03/18 02:31:08;;;;;;;22.02;7.13;;;;;;;2.81;96.33;102814.56;5048762;28;20099;-70
2021/03/18 02:34:00;;;;;;;24.10;7.80;;;;;;;2.81;97.25;102799.63;5047368;28;20044;-70
2021/03/18 02:36:45;;;;;;;23.38;7.47;;;;;;;2.83;98.11;102795.16;5047402;28;20574;-71
2021/03/18 02:39:17;;;;;;;18.48;7.15;;;;;;;2.81;97.19;102796.13;5047615;28;20021;-71
2021/03/18 02:41:50;;;;;;;24.10;7.38;;;;;;;2.61;97.32;102752.88;5045743;28;20021;-70
2021/03/18 02:44:22;;;;;;;22.70;7.82;;;;;;;2.78;97.62;102788.34;5036095;28;20028;-71
2021/03/18 02:46:54;;;;;;;23.70;7.53;;;;;;;2.76;97.33;102777.81;5002145;28;20055;-70
2021/03/18 02:49:22;;;;;;;27.00;8.27;;;;;;;2.68;98.39;102759.63;5047898;28;20055;-70
2021/03/18 02:51:48;;;;;;;27.52;7.88;;;;;;;2.38;98.52;102716.78;5048664;28;20037;-70
2021/03/18 02:54:18;;;;;;;21.13;8.55;;;;;;;2.57;98.77;102748.63;5049487;28;20036;-71
2021/03/18 02:56:47;;;;;;;23.63;7.78;;;;;;;2.73;98.73;102772.66;5031025;28;20032;-71
2021/03/18 02:59:19;;;;;;;26.80;8.20;;;;;;;2.74;99.21;102780.53;5047233;28;20033;-70
2021/03/18 03:01:47;;;;;;;29.27;8.77;;;;;;;2.77;99.04;102783.97;5045188;28;20056;-70
2021/03/18 03:04:14;;;;;;;18.92;8.10;;;;;;;2.77;98.82;102786.59;5050810;28;20028;-71
2021/03/18 03:06:42;;;;;;;21.73;8.20;;;;;;;2.80;99.28;102783.84;5028879;28;20029;-70
2021/03/18 03:09:09;;;;;;;20.52;7.85;;;;;;;2.83;98.54;102773.19;5045806;28;20025;-70
2021/03/18 03:11:37;;;;;;;39.23;9.23;;;;;;;2.84;98.76;102783.69;5030056;28;20410;-70
2021/03/18 03:14:04;;;;;;;28.95;10.18;;;;;;;2.87;98.89;102788.84;5051745;28;20025;-70
2021/03/18 03:16:32;;;;;;;23.05;8.52;;;;;;;2.89;97.88;102776.47;5047057;28;20033;-70
2021/03/18 03:18:58;;;;;;;24.42;9.20;;;;;;;2.65;97.91;102732.53;5030113;28;20479;-69
2021/03/18 03:21:25;;;;;;;27.50;8.80;;;;;;;2.92;98.24;102775.47;5049841;28;20084;-70
2021/03/18 03:23:51;;;;;;;17.45;8.02;;;;;;;2.96;98.47;102770.97;5045438;28;20053;-70
2021/03/18 03:26:21;;;;;;;25.25;8.48;;;;;;;2.98;98.02;102771.78;5028786;28;20420;-69
2021/03/18 03:28:48;;;;;;;21.55;7.93;;;;;;;3.02;98.02;102782.16;5047670;28;20020;-69
2021/03/18 03:31:14;;;;;;;29.02;9.32;;;;;;;3.03;98.17;102770.72;5024124;28;20021;-69
2021/03/18 03:33:43;;;;;;;24.40;9.30;;;;;;;3.05;97.97;102776.75;5045428;28;20056;-70
2021/03/18 03:36:09;;;;;;;23.85;8.02;;;;;;;3.07;98.04;102784.63;5032504;28;20029;-70
2021/03/18 03:38:35;;;;;;;30.90;9.10;;;;;;;2.80;98.42;102741.66;5028620;28;20048;-70
2021/03/18 03:41:01;;;;;;;27.10;9.40;;;;;;;3.10;97.87;102789.81;5046580;28;20028;-70
2021/03/18 03:43:26;;;;;;;23.55;8.25;;;;;;;3.07;97.47;102779.34;5048211;28;20032;-70
2021/03/18 03:45:53;;;;;;;27.90;8.50;;;;;;;3.08;97.33;102785.47;5045665;28;20033;-70
2021/03/18 03:48:20;;;;;;;23.45;8.18;;;;;;;3.10;98.29;102783.66;5048549;28;20029;-70
2021/03/18 03:50:46;;;;;;;34.15;9.15;;;;;;;3.10;98.20;102787.16;5047481;28;20128;-69
2021/03/18 03:53:26;;;;;;;20.73;8.95;;;;;;;3.08;97.76;102774.94;5054263;28;20107;-70
2021/03/18 03:56:01;;;;;;;24.95;8.60;;;;;;;3.07;98.36;102766.16;5044321;28;20017;-70
2021/03/18 03:58:47;;;;;;;22.63;9.18;;;;;;;3.02;98.49;102761.06;5048064;28;20049;-70
2021/03/18 04:01:26;;;;;;;27.48;8.88;;;;;;;2.97;98.61;102754.25;5046630;28;20112;-70
2021/03/18 04:03:56;;;;;;;26.30;9.20;;;;;;;2.89;98.43;102758.00;5045902;28;20072;-70
2021/03/18 04:06:22;;;;;;;25.70;8.63;;;;;;;2.82;99.02;102747.72;5043628;28;20025;-70
2021/03/18 04:08:49;;;;;;;24.27;8.65;;;;;;;2.72;99.14;102745.44;5057473;28;20115;-70
2021/03/18 04:11:15;;;;;;;31.83;9.48;;;;;;;2.65;99.24;102732.53;5045829;28;20452;-70
2021/03/18 04:13:42;;;;;;;21.25;8.50;;;;;;;2.16;99.44;102670.13;5043588;28;20111;-70
2021/03/18 04:16:08;;;;;;;27.95;8.80;;;;;;;2.49;99.58;102733.06;5046156;28;20052;-71
2021/03/18 04:18:38;;;;;;;23.63;8.27;;;;;;;2.43;99.75;102735.94;5046443;28;20039;-70
2021/03/18 04:21:07;;;;;;;25.58;8.80;;;;;;;2.36;99.49;102723.88;5046041;28;20040;-69
2021/03/18 04:23:32;;;;;;;;;;;;;;;2.29;99.94;102732.00;5046389;28;20037;-70
2021/03/18 04:25:59;;;;;;;15.02;7.50;;;;;;;2.23;100.00;102719.03;5046326;28;19923;-70
2021/03/18 04:28:33;;;;;;;24.58;7.68;;;;;;;1.86;100.00;102672.88;5028104;28;20040;-70
2021/03/18 04:30:59;;;;;;;27.02;7.72;;;;;;;2.12;100.00;102716.75;5042229;28;20083;-70
2021/03/18 04:33:26;;;;;;;24.85;7.82;;;;;;;2.09;100.00;102721.28;5046447;28;20032;-69
2021/03/18 04:35:52;;;;;;;21.23;7.55;;;;;;;1.88;100.00;102691.25;5045531;28;20036;-70
2021/03/18 04:38:18;;;;;;;35.00;8.30;;;;;;;1.90;100.00;102694.69;5044524;28;20036;-69
2021/03/18 04:40:45;;;;;;;25.13;8.02;;;;;;;2.02;100.00;102711.88;5047588;28;20029;-70
2021/03/18 04:43:12;;;;;;;45.67;8.10;;;;;;;2.04;100.00;102717.91;5045808;28;20037;-69
2021/03/18 04:45:38;;;;;;;23.33;7.90;;;;;;;1.91;100.00;102699.03;5044150;28;20491;-72
2021/03/18 04:48:05;;;;;;;32.40;8.18;;;;;;;1.99;100.00;102723.34;5010769;28;20388;-70
2021/03/18 04:50:31;;;;;;;20.02;7.03;;;;;;;1.96;100.00;102712.94;5048159;28;20028;-71
2021/03/18 04:52:57;;;;;;;29.02;7.72;;;;;;;1.55;100.00;102647.56;5024804;28;20111;-69
2021/03/18 04:55:23;;;;;;;23.92;7.80;;;;;;;1.92;100.00;102706.03;5045109;28;20545;-72
2021/03/18 04:58:02;;;;;;;18.42;6.70;;;;;;;1.88;100.00;102705.28;5044838;28;20028;-71
2021/03/18 05:00:29;;;;;;;24.88;7.82;;;;;;;1.89;100.00;102703.50;5047060;28;20704;-70
2021/03/18 05:03:01;;;;;;;24.17;8.20;;;;;;;1.90;100.00;102699.94;5049755;28;20626;-70
2021/03/18 05:05:28;;;;;;;23.95;7.10;;;;;;;1.91;100.00;102712.22;5039029;28;20119;-70
2021/03/18 05:07:55;;;;;;;30.00;7.85;;;;;;;1.91;100.00;102710.44;5040385;28;20495;-72
2021/03/18 05:10:23;;;;;;;26.20;8.07;;;;;;;1.99;100.00;102708.41;5046634;28;20021;-70
2021/03/18 05:12:51;;;;;;;29.95;8.63;;;;;;;2.07;100.00;102710.78;5047518;28;20029;-70
2021/03/18 05:15:17;;;;;;;30.60;8.43;;;;;;;2.07;100.00;102718.69;5045321;28;20020;-70
2021/03/18 05:17:43;;;;;;;25.88;7.55;;;;;;;2.07;100.00;102723.97;5045130;28;20064;-69
2021/03/18 05:20:11;;;;;;;21.75;7.97;;;;;;;2.08;100.00;102725.69;5038951;28;20465;-69
2021/03/18 05:22:38;;;;;;;27.55;8.65;;;;;;;2.12;100.00;102714.13;5025426;28;20029;-70
2021/03/18 05:25:08;;;;;;;30.52;9.73;;;;;;;2.17;100.00;102713.97;5026413;28;20033;-69
2021/03/18 05:27:33;;;;;;;27.75;7.95;;;;;;;2.05;100.00;102682.78;5008841;28;20048;-69
2021/03/18 05:29:59;;;;;;;31.25;8.55;;;;;;;2.20;100.00;102703.31;5027734;28;20030;-69
2021/03/18 05:32:29;;;;;;;26.08;7.80;;;;;;;1.79;100.00;102638.00;5027522;28;20033;-69
2021/03/18 05:34:54;;;;;;;32.72;7.40;;;;;;;2.25;100.00;102719.84;5023134;28;20652;-69
2021/03/18 05:37:20;;;;;;;34.30;8.27;;;;;;;2.16;100.00;102692.94;5007911;28;20029;-69
2021/03/18 05:39:45;;;;;;;28.98;8.30;;;;;;;2.30;100.00;102703.88;5021981;28;20022;-70
2021/03/18 05:42:11;;;;;;;29.02;7.38;;;;;;;2.28;100.00;102714.47;5031055;28;20044;-71
2021/03/18 05:44:37;;;;;;;32.75;8.38;;;;;;;2.35;100.00;102728.28;5026596;28;20029;-71
2021/03/18 05:47:03;;;;;;;35.42;8.52;;;;;;;2.38;100.00;102724.69;5028705;28;20535;-70
2021/03/18 05:49:29;;;;;;;38.25;8.40;;;;;;;2.41;100.00;102706.13;5027649;28;20107;-71
2021/03/18 05:51:57;;;;;;;30.27;8.23;;;;;;;2.41;100.00;102709.63;5011581;28;20033;-70
2021/03/18 05:54:23;;;;;;;30.42;9.32;;;;;;;2.48;100.00;102718.16;5029658;28;20100;-71
2021/03/18 05:56:49;;;;;;;38.55;10.13;;;;;;;2.47;100.00;102691.88;5009239;28;20180;-71
2021/03/18 05:59:17;;;;;;;34.90;10.65;;;;;;;2.37;100.00;102662.34;5029171;28;20606;-71
2021/03/18 06:01:43;;;;;;;31.25;9.90;;;;;;;2.70;100.00;102691.91;5026936;28;20037;-71
2021/03/18 06:04:08;;;;;;;35.78;10.13;;;;;;;2.51;100.00;102651.34;5011999;28;20433;-71
2021/03/18 06:06:35;;;;;;;34.50;10.32;;;;;;;2.62;100.00;102658.81;5028151;28;20028;-71
2021/03/18 06:09:04;;;;;;;32.88;10.20;;;;;;;2.84;100.00;102680.84;5031441;28;20025;-71
2021/03/18 06:11:30;;;;;;;29.88;10.07;;;;;;;2.88;100.00;102679.81;5011982;28;20033;-70
2021/03/18 06:13:55;;;;;;;32.35;9.70;;;;;;;2.96;100.00;102683.94;5010451;28;22256;-70
2021/03/18 06:16:21;;;;;;;40.67;10.48;;;;;;;2.99;100.00;102673.25;5026830;28;20680;-70
2021/03/18 06:18:47;;;;;;;31.23;9.68;;;;;;;3.01;100.00;102671.41;5027244;28;20054;-70
2021/03/18 06:21:12;;;;;;;32.35;10.50;;;;;;;3.05;100.00;102670.41;5037556;28;20053;-70
2021/03/18 06:23:38;;;;;;;37.05;12.55;;;;;;;3.08;100.00;102672.91;5040286;28;20044;-71
2021/03/18 06:26:04;;;;;;;34.70;10.85;;;;;;;3.12;100.00;102661.31;5049586;28;20052;-70
2021/03/18 06:28:35;;;;;;;38.92;11.52;;;;;;;3.16;100.00;102649.72;5048826;28;20040;-70
2021/03/18 06:31:15;;;;;;;36.17;11.98;;;;;;;3.24;100.00;102654.69;5048841;28;20025;-70
2021/03/18 06:33:51;;;;;;;31.58;12.02;;;;;;;3.28;100.00;102648.41;5047963;28;20037;-70
2021/03/18 06:36:16;;;;;;;39.88;13.50;;;;;;;3.32;100.00;102644.72;5020503;28;20025;-71
2021/03/18 06:38:42;;;;;;;41.63;13.95;;;;;;;3.38;100.00;102648.91;5036926;28;20114;-70
2021/03/18 06:41:07;;;;;;;46.75;14.68;;;;;;;3.43;100.00;102649.53;5044154;28;20039;-70
2021/03/18 06:43:39;;;;;;;40.80;13.90;;;;;;;3.42;100.00;102633.78;5049875;28;20048;-70
2021/03/18 06:46:16;;;;;;;45.72;16.55;;;;;;;3.43;100.00;102624.94;5046249;28;20032;-71
2021/03/18 06:48:41;;;;;;;46.15;17.33;;;;;;;3.58;100.00;102639.28;5026408;28;20537;-71
2021/03/18 06:51:27;;;;;;;38.00;14.38;;;;;;;3.64;100.00;102637.25;5041216;28;20712;-70
2021/03/18 06:53:54;;;;;;;41.75;14.73;;;;;;;3.71;100.00;102627.28;5032099;28;20476;-70
2021/03/18 06:56:27;;;;;;;35.88;11.98;;;;;;;3.77;99.56;102611.19;5026791;28;20730;-71
2021/03/18 06:58:54;;;;;;;36.65;12.20;;;;;;;3.83;99.63;102612.72;5046817;28;20513;-71
2021/03/18 07:01:26;;;;;;;39.50;12.40;;;;;;;3.86;99.10;102620.53;5032188;28;20039;-71
2021/03/18 07:04:01;;;;;;;37.70;12.35;;;;;;;3.92;98.60;102622.03;5039584;28;20500;-70
2021/03/18 07:06:32;;;;;;;34.55;11.63;;;;;;;3.95;98.55;102621.88;5040552;28;20037;-71
2021/03/18 07:09:05;;;;;;;34.13;11.98;;;;;;;3.96;98.92;102621.84;5047942;28;20547;-71
2021/03/18 07:11:36;;;;;;;35.20;11.18;;;;;;;4.00;98.72;102634.91;5046347;28;20044;-70
2021/03/18 07:14:02;;;;;;;39.38;12.00;;;;;;;4.04;99.49;102623.28;5047113;28;20021;-71
2021/03/18 07:16:47;;;;;;;55.00;11.80;;;;;;;4.10;98.47;102629.16;5038872;28;20518;-70
2021/03/18 07:19:39;;;;;;;42.63;11.45;;;;;;;4.20;98.60;102636.69;5037651;28;20064;-71
2021/03/18 07:22:04;;;;;;;46.83;11.50;;;;;;;4.15;98.48;102626.31;5033150;28;20044;-71
2021/03/18 07:24:36;;;;;;;44.45;12.45;;;;;;;4.28;98.22;102640.69;5029568;28;20072;-72
2021/03/18 07:27:13;;;;;;;38.80;10.35;;;;;;;4.02;98.65;102580.19;5042785;28;20048;-73
2021/03/18 07:29:44;;;;;;;43.63;10.75;;;;;;;4.40;97.95;102631.38;5032555;28;20070;-72
2021/03/18 07:32:11;;;;;;;48.25;10.70;;;;;;;4.47;98.38;102625.81;5046400;28;20029;-72
2021/03/18 07:34:38;;;;;;;52.20;11.32;;;;;;;4.38;98.38;102608.59;5047830;28;20059;-71
2021/03/18 07:37:05;;;;;;;41.00;11.30;;;;;;;4.66;98.25;102633.78;5049575;28;20035;-73
2021/03/18 07:39:31;;;;;;;39.42;9.60;;;;;;;4.75;98.06;102633.34;5048237;28;20031;-72
2021/03/18 07:41:58;;;;;;;52.50;11.38;;;;;;;4.66;97.33;102608.16;5046879;28;20033;-72
2021/03/18 07:44:24;;;;;;;39.95;9.70;;;;;;;4.96;97.02;102633.25;5016913;28;20049;-71
2021/03/18 07:46:51;;;;;;;43.95;9.48;;;;;;;5.03;95.75;102629.41;5045473;28;20037;-72
2021/03/18 07:49:21;;;;;;;42.33;9.45;;;;;;;5.10;95.77;102625.50;5049240;28;20107;-72
2021/03/18 07:51:51;;;;;;;41.78;9.65;;;;;;;5.16;96.81;102616.41;5051172;28;20096;-71
2021/03/18 07:54:19;;;;;;;38.72;8.75;;;;;;;5.26;95.57;102620.34;5044167;28;20107;-72
2021/03/18 07:56:52;;;;;;;42.55;8.25;;;;;;;5.33;94.93;102624.41;5044815;28;20094;-72
2021/03/18 07:59:20;;;;;;;37.30;8.52;;;;;;;5.43;95.58;102626.63;5034203;28;20071;-71
2021/03/18 08:01:46;;;;;;;39.65;9.63;;;;;;;5.48;94.40;102620.16;5030110;28;20048;-73
2021/03/18 08:04:14;;;;;;;34.58;8.55;;;;;;;5.48;94.72;102606.94;5033956;28;20033;-73
2021/03/18 08:06:39;;;;;;;38.95;9.52;;;;;;;5.50;94.84;102609.47;5032911;28;20044;-72
2021/03/18 08:09:25;;;;;;;44.55;9.55;;;;;;;5.55;94.01;102611.91;5003219;28;20060;-72
2021/03/18 08:11:51;;;;;;;52.08;9.05;;;;;;;5.32;94.63;102566.25;5037427;28;20039;-72
2021/03/18 08:14:21;;;;;;;37.10;10.25;;;;;;;5.48;95.24;102611.34;5032881;28;20033;-73
2021/03/18 08:16:46;;;;;;;39.97;9.57;;;;;;;5.47;95.28;102612.28;5034700;28;20163;-72
2021/03/18 08:19:14;;;;;;;38.80;9.60;;;;;;;5.19;95.06;102566.84;5047182;28;20509;-72
2021/03/18 08:21:45;;;;;;;38.35;9.90;;;;;;;5.51;95.23;102612.03;5051289;28;20048;-73
2021/03/18 08:24:16;;;;;;;35.13;8.88;;;;;;;5.60;95.48;102609.88;5040781;28;20037;-72
2021/03/18 08:27:04;;;;;;;37.40;8.65;;;;;;;5.61;95.19;102619.56;5038072;28;20041;-71
2021/03/18 08:29:43;;;;;;;31.48;8.55;;;;;;;5.62;95.31;102615.97;5027971;28;20495;-70
2021/03/18 08:32:11;;;;;;;40.60;9.73;;;;;;;5.60;95.57;102613.38;5031117;28;20027;-70
2021/03/18 08:34:49;;;;;;;30.63;8.13;;;;;;;5.72;94.89;102624.28;5043725;28;20060;-75
2021/03/18 08:37:29;;;;;;;;;;;;;;;5.74;94.76;102622.41;5044610;28;20021;-72
2021/03/18 08:39:55;;;;;;;40.17;7.90;;;;;;;5.80;93.61;102628.25;5025731;28;19921;-72
2021/03/18 08:42:30;;;;;;;38.75;8.98;;;;;;;5.84;94.49;102631.59;5037614;28;20118;-73
2021/03/18 08:45:07;;;;;;;28.55;7.68;;;;;;;5.91;94.42;102629.50;5017992;28;20063;-72
2021/03/18 08:47:56;;;;;;;29.92;7.15;;;;;;;5.99;93.14;102624.69;5038500;28;20028;-71
2021/03/18 08:50:24;;;;;;;35.63;7.72;;;;;;;6.00;91.81;102621.13;5041535;28;20104;-70
2021/03/18 08:52:52;;;;;;;34.60;7.30;;;;;;;5.91;93.06;102603.88;5039796;28;20582;-70
2021/03/18 08:55:49;;;;;;;25.98;6.90;;;;;;;6.16;93.08;102629.13;5034684;28;20079;-70
2021/03/18 08:58:15;;;;;;;23.15;6.53;;;;;;;6.22;92.14;102625.31;5025916;28;20045;-70
2021/03/18 09:00:42;;;;;;;26.92;7.05;;;;;;;6.26;91.80;102611.78;5018884;28;20052;-70
2021/03/18 09:03:17;;;;;;;31.00;7.00;;;;;;;6.27;91.36;102615.31;5037276;28;20028;-70
2021/03/18 09:05:55;;;;;;;32.45;7.47;;;;;;;6.28;90.88;102603.78;5019819;28;20099;-70
2021/03/18 09:08:35;;;;;;;22.83;5.88;;;;;;;6.30;91.03;102606.34;5039101;28;20029;-70
2021/03/18 09:11:01;;;;;;;28.77;6.30;;;;;;;6.33;90.94;102603.53;5036672;28;20021;-69
2021/03/18 09:13:26;;;;;;;28.98;6.72;;;;;;;6.37;91.47;102608.59;5038982;28;20400;-72
2021/03/18 09:15:54;;;;;;;36.45;7.15;;;;;;;6.41;90.64;102610.13;5036823;28;20060;-70
2021/03/18 09:18:29;;;;;;;34.38;7.05;;;;;;;6.32;90.04;102584.09;5016887;28;20033;-71
2021/03/18 09:21:07;;;;;;;32.58;6.57;;;;;;;6.62;89.67;102607.25;5040386;28;20270;-70
2021/03/18 09:23:37;;;;;;;24.75;5.80;;;;;;;6.45;88.87;102570.19;5027904;28;20049;-70
2021/03/18 09:26:05;;;;;;;27.08;6.28;;;;;;;6.70;88.56;102583.81;5030494;28;20033;-71
2021/03/18 09:28:34;;;;;;;;;;;;;;;6.68;88.39;102601.63;5036907;28;20845;-71
2021/03/18 09:31:01;;;;;;;22.23;5.35;;;;;;;6.55;87.28;102582.84;5038088;28;19943;-71
2021/03/18 09:33:32;;;;;;;16.55;4.70;;;;;;;6.85;87.58;102613.09;5042498;28;20028;-71
2021/03/18 09:36:01;;;;;;;21.48;4.70;;;;;;;6.95;86.79;102605.47;5042228;28;20043;-70
2021/03/18 09:38:30;;;;;;;23.05;4.80;;;;;;;6.78;87.03;102569.25;5040087;28;20032;-70
2021/03/18 09:40:58;;;;;;;20.92;4.85;;;;;;;7.01;86.46;102581.25;5016635;28;20025;-71
2021/03/18 09:43:25;;;;;;;;;;;;;;;7.23;85.56;102603.91;5004600;28;20395;-71
2021/03/18 09:46:09;;;;;;;24.60;4.18;;;;;;;7.47;85.02;102607.78;5041214;28;20004;-71
2021/03/18 09:48:37;;;;;;;21.02;4.25;;;;;;;7.61;83.67;102600.81;5033100;28;20041;-71
2021/03/18 09:51:15;;;;;;;21.00;4.35;;;;;;;7.69;82.21;102595.03;5032544;28;20131;-70
2021/03/18 09:53:44;;;;;;;17.20;3.80;;;;;;;7.75;82.07;102592.03;5019582;28;20025;-71
2021/03/18 09:56:12;;;;;;;17.08;3.65;;;;;;;7.78;81.52;102586.53;5018858;28;20059;-70
2021/03/18 09:58:39;;;;;;;;;;;;;;;7.77;81.11;102590.97;5038019;28;20108;-70
2021/03/18 10:01:15;;;;;;;14.30;3.97;;;;;;;7.73;81.73;102594.78;5034979;28;19981;-70
2021/03/18 10:04:15;;;;;;;17.60;3.97;;;;;;;7.74;81.65;102582.34;5038226;28;20033;-70
2021/03/18 10:06:43;;;;;;;11.82;3.40;;;;;;;7.94;81.24;102583.81;5012583;28;20064;-73
2021/03/18 10:09:27;;;;;;;18.23;3.38;;;;;;;7.98;80.51;102582.69;5019529;28;20033;-73
2021/03/18 10:11:55;;;;;;;15.95;3.80;;;;;;;7.99;80.33;102587.06;5003317;28;20503;-73
2021/03/18 10:14:25;;;;;;;;;;;;;;;8.11;79.90;102577.44;5019953;28;20408;-70
2021/03/18 10:16:53;;;;;;;11.00;3.65;;;;;;;8.21;79.12;102581.25;5026588;28;19953;-73
2021/03/18 10:19:22;;;;;;;14.15;3.75;;;;;;;8.25;78.62;102573.94;5034520;28;20164;-73
2021/03/18 10:21:48;;;;;;;14.82;3.67;;;;;;;8.31;78.05;102570.06;5019050;28;20049;-73
2021/03/18 10:24:14;;;;;;;13.43;3.25;;;;;;;8.38;77.78;102569.56;5036377;28;20525;-72
2021/03/18 10:26:40;;;;;;;11.25;3.40;;;;;;;8.34;77.83;102546.75;5017879;28;20148;-73
2021/03/18 10:29:08;;;;;;;10.18;3.83;;;;;;;8.55;76.49;102565.03;5038578;28;20020;-73
2021/03/18 10:31:35;;;;;;;18.90;3.75;;;;;;;8.34;77.67;102553.91;5022578;28;20033;-73
2021/03/18 10:34:02;;;;;;;16.05;3.58;;;;;;;8.26;78.51;102557.03;5040341;28;20029;-73
2021/03/18 10:36:37;;;;;;;16.15;4.20;;;;;;;8.23;78.24;102560.72;5009761;28;20041;-73
2021/03/18 10:39:09;;;;;;;14.32;3.70;;;;;;;8.06;78.96;102558.28;5035447;28;20026;-73
2021/03/18 10:41:55;;;;;;;14.80;5.15;;;;;;;7.90;79.75;102558.34;5030060;28;20033;-73
2021/03/18 10:44:32;;;;;;;15.55;5.35;;;;;;;7.87;79.78;102556.75;5033454;28;20022;-73
2021/03/18 10:47:17;;;;;;;14.63;5.20;;;;;;;7.90;79.38;102548.59;5023025;28;20064;-73
2021/03/18 10:50:00;;;;;;;15.10;4.88;;;;;;;7.75;79.95;102525.59;5040601;28;20056;-73
2021/03/18 10:52:25;;;;;;;15.18;4.97;;;;;;;7.99;80.11;102556.94;5027605;28;20033;-73
2021/03/18 10:54:58;;;;;;;14.60;5.22;;;;;;;7.98;79.86;102553.44;5038156;28;20029;-73
2021/03/18 10:57:27;;;;;;;15.20;4.93;;;;;;;7.87;80.63;102550.59;5031468;28;20518;-73
2021/03/18 10:59:57;;;;;;;15.90;5.38;;;;;;;7.99;80.54;102555.16;5040773;28;20547;-73
2021/03/18 11:02:26;;;;;;;13.07;4.28;;;;;;;8.11;79.82;102550.84;5041783;28;20025;-73
2021/03/18 11:04:57;;;;;;;15.77;5.32;;;;;;;8.07;79.87;102550.19;5033946;28;20021;-73
2021/03/18 11:07:23;;;;;;;14.27;4.82;;;;;;;8.09;80.64;102539.47;5037404;28;20033;-73
2021/03/18 11:10:28;;;;;;;15.00;5.53;;;;;;;8.13;81.18;102548.97;5038066;28;20059;-73
2021/03/18 11:13:00;;;;;;;14.20;5.20;;;;;;;8.12;79.49;102536.63;4953999;28;20170;-73
2021/03/18 11:15:41;;;;;;;16.95;5.55;;;;;;;8.17;80.16;102538.97;5021079;28;20525;-73
2021/03/18 11:18:08;;;;;;;12.43;5.60;;;;;;;8.21;80.03;102521.88;5039805;28;20032;-73
2021/03/18 11:20:36;;;;;;;12.65;5.88;;;;;;;8.47;77.81;102546.84;5020151;28;20021;-73
2021/03/18 11:23:02;;;;;;;19.10;9.50;;;;;;;8.62;77.70;102552.19;5031283;28;20057;-73
2021/03/18 11:25:28;;;;;;;12.20;5.63;;;;;;;8.62;78.41;102544.22;5028051;28;20395;-73
2021/03/18 11:27:54;;;;;;;11.13;5.47;;;;;;;8.72;78.25;102551.47;5022727;28;20060;-73
2021/03/18 11:30:33;;;;;;;12.95;4.97;;;;;;;8.93;78.63;102543.06;5035723;28;20052;-71
2021/03/18 11:33:27;;;;;;;11.95;5.22;;;;;;;9.05;77.08;102541.38;5030897;28;20045;-71
2021/03/18 11:35:52;;;;;;;16.27;6.43;;;;;;;9.06;75.96;102537.78;5030011;28;20051;-71
2021/03/18 11:38:19;;;;;;;12.52;4.68;;;;;;;9.00;76.26;102539.03;5038598;28;20032;-72